sensor_id;sensor_type;location;lat;lon;timestamp;P1;durP1;ratioP1;P2;durP2;ratioP2
53927;SDS011;39837;47.630;18.822;2022-12-10T00:01:09;8.68;;;6.43;;
53927;SDS011;39837;47.630;18.822;2022-12-10T00:03:54;7.35;;;6.65;;
53927;SDS011;39837;47.630;18.822;2022-12-10T00:06:38;11.93;;;6.80;;
53927;SDS011;39837;47.630;18.822;2022-12-10T00:09:23;5.90;;;5.40;;
53927;SDS011;39837;47.630;18.822;2022-12-10T00:12:07;4.63;;;4.22;;
53927;SDS011;39837;47.630;18.822;2022-12-10T00:14:51;4.57;;;4.18;;
53927;SDS011;39837;47.630;18.822;2022-12-10T00:17:35;6.22;;;4.63;;
53927;SDS011;39837;47.630;18.822;2022-12-10T00:20:19;4.15;;;3.85;;
53927;SDS011;39837;47.630;18.822;2022-12-10T00:23:03;3.45;;;3.15;;
53927;SDS011;39837;47.630;18.822;2022-12-10T00:25:48;3.58;;;3.38;;
53927;SDS011;39837;47.630;18.822;2022-12-10T00:28:32;3.88;;;3.35;;
53927;SDS011;39837;47.630;18.822;2022-12-10T00:31:21;3.85;;;3.03;;
53927;SDS011;39837;47.630;18.822;2022-12-10T00:34:13;3.67;;;3.47;;
53927;SDS011;39837;47.630;18.822;2022-12-10T00:36:57;2.53;;;2.42;;
53927;SDS011;39837;47.630;18.822;2022-12-10T00:39:41;3.30;;;3.00;;
53927;SDS011;39837;47.630;18.822;2022-12-10T00:42:25;3.85;;;3.55;;
53927;SDS011;39837;47.630;18.822;2022-12-10T00:45:09;3.00;;;2.85;;
53927;SDS011;39837;47.630;18.822;2022-12-10T00:47:53;2.67;;;2.58;;
53927;SDS011;39837;47.630;18.822;2022-12-10T00:50:37;3.47;;;3.17;;
53927;SDS011;39837;47.630;18.822;2022-12-10T00:53:21;5.30;;;3.58;;
53927;SDS011;39837;47.630;18.822;2022-12-10T00:56:06;3.22;;;3.00;;
53927;SDS011;39837;47.630;18.822;2022-12-10T00:58:52;3.58;;;3.28;;
53927;SDS011;39837;47.630;18.822;2022-12-10T01:01:38;4.35;;;2.92;;
53927;SDS011;39837;47.630;18.822;2022-12-10T01:04:24;3.03;;;2.85;;
53927;SDS011;39837;47.630;18.822;2022-12-10T01:07:07;4.20;;;3.88;;
53927;SDS011;39837;47.630;18.822;2022-12-10T01:09:53;3.10;;;2.95;;
53927;SDS011;39837;47.630;18.822;2022-12-10T01:12:38;2.92;;;2.83;;
53927;SDS011;39837;47.630;18.822;2022-12-10T01:15:22;2.63;;;2.53;;
53927;SDS011;39837;47.630;18.822;2022-12-10T01:18:05;2.50;;;2.40;;
53927;SDS011;39837;47.630;18.822;2022-12-10T01:20:49;2.85;;;2.75;;
53927;SDS011;39837;47.630;18.822;2022-12-10T01:23:34;4.13;;;3.80;;
53927;SDS011;39837;47.630;18.822;2022-12-10T01:26:21;2.35;;;2.25;;
53927;SDS011;39837;47.630;18.822;2022-12-10T01:29:07;3.08;;;2.88;;
53927;SDS011;39837;47.630;18.822;2022-12-10T01:31:51;3.03;;;2.85;;
53927;SDS011;39837;47.630;18.822;2022-12-10T01:34:36;6.30;;;3.83;;
53927;SDS011;39837;47.630;18.822;2022-12-10T01:37:20;5.95;;;4.90;;
53927;SDS011;39837;47.630;18.822;2022-12-10T01:40:04;4.68;;;4.28;;
53927;SDS011;39837;47.630;18.822;2022-12-10T01:42:48;4.75;;;4.03;;
53927;SDS011;39837;47.630;18.822;2022-12-10T01:45:32;5.30;;;4.80;;
53927;SDS011;39837;47.630;18.822;2022-12-10T01:48:17;9.50;;;3.63;;
53927;SDS011;39837;47.630;18.822;2022-12-10T01:51:02;5.65;;;5.15;;
53927;SDS011;39837;47.630;18.822;2022-12-10T01:53:46;4.00;;;3.70;;
53927;SDS011;39837;47.630;18.822;2022-12-10T01:56:30;4.40;;;3.95;;
53927;SDS011;39837;47.630;18.822;2022-12-10T01:59:15;2.75;;;2.63;;
53927;SDS011;39837;47.630;18.822;2022-12-10T02:02:11;2.47;;;2.38;;
53927;SDS011;39837;47.630;18.822;2022-12-10T02:08:11;2.78;;;2.60;;
53927;SDS011;39837;47.630;18.822;2022-12-10T02:11:28;1.77;;;1.77;;
53927;SDS011;39837;47.630;18.822;2022-12-10T02:14:25;3.08;;;2.88;;
53927;SDS011;39837;47.630;18.822;2022-12-10T02:17:19;2.67;;;2.45;;
53927;SDS011;39837;47.630;18.822;2022-12-10T02:23:12;2.33;;;2.22;;
53927;SDS011;39837;47.630;18.822;2022-12-10T02:31:36;2.70;;;2.53;;
53927;SDS011;39837;47.630;18.822;2022-12-10T02:34:23;3.17;;;3.08;;
53927;SDS011;39837;47.630;18.822;2022-12-10T02:37:18;3.13;;;2.90;;
53927;SDS011;39837;47.630;18.822;2022-12-10T02:40:23;2.67;;;2.58;;
53927;SDS011;39837;47.630;18.822;2022-12-10T02:43:10;2.80;;;2.70;;
53927;SDS011;39837;47.630;18.822;2022-12-10T02:45:55;2.75;;;2.60;;
53927;SDS011;39837;47.630;18.822;2022-12-10T02:48:40;3.58;;;3.28;;
53927;SDS011;39837;47.630;18.822;2022-12-10T02:51:25;3.53;;;3.28;;
53927;SDS011;39837;47.630;18.822;2022-12-10T02:54:33;5.45;;;4.38;;
53927;SDS011;39837;47.630;18.822;2022-12-10T02:57:36;4.57;;;4.25;;
53927;SDS011;39837;47.630;18.822;2022-12-10T03:00:46;4.70;;;4.10;;
53927;SDS011;39837;47.630;18.822;2022-12-10T03:03:43;3.78;;;3.58;;
53927;SDS011;39837;47.630;18.822;2022-12-10T03:06:38;4.50;;;4.10;;
53927;SDS011;39837;47.630;18.822;2022-12-10T03:09:26;3.60;;;3.35;;
53927;SDS011;39837;47.630;18.822;2022-12-10T03:12:35;3.88;;;3.60;;
53927;SDS011;39837;47.630;18.822;2022-12-10T03:15:20;10.32;;;4.63;;
53927;SDS011;39837;47.630;18.822;2022-12-10T03:18:07;5.03;;;3.95;;
53927;SDS011;39837;47.630;18.822;2022-12-10T03:20:53;7.95;;;4.05;;
53927;SDS011;39837;47.630;18.822;2022-12-10T03:23:39;4.82;;;4.30;;
53927;SDS011;39837;47.630;18.822;2022-12-10T03:26:25;7.45;;;4.32;;
53927;SDS011;39837;47.630;18.822;2022-12-10T03:29:11;6.60;;;4.28;;
53927;SDS011;39837;47.630;18.822;2022-12-10T03:31:58;5.45;;;4.30;;
53927;SDS011;39837;47.630;18.822;2022-12-10T03:34:43;4.82;;;4.45;;
53927;SDS011;39837;47.630;18.822;2022-12-10T03:37:27;3.95;;;3.65;;
53927;SDS011;39837;47.630;18.822;2022-12-10T03:40:12;5.25;;;4.15;;
53927;SDS011;39837;47.630;18.822;2022-12-10T03:42:57;5.13;;;4.43;;
53927;SDS011;39837;47.630;18.822;2022-12-10T03:45:41;4.68;;;4.25;;
53927;SDS011;39837;47.630;18.822;2022-12-10T03:48:25;5.70;;;4.28;;
53927;SDS011;39837;47.630;18.822;2022-12-10T03:51:10;4.75;;;4.28;;
53927;SDS011;39837;47.630;18.822;2022-12-10T03:53:54;4.45;;;3.95;;
53927;SDS011;39837;47.630;18.822;2022-12-10T03:56:37;4.80;;;4.43;;
53927;SDS011;39837;47.630;18.822;2022-12-10T03:59:21;5.25;;;4.75;;
53927;SDS011;39837;47.630;18.822;2022-12-10T04:02:05;7.82;;;5.07;;
53927;SDS011;39837;47.630;18.822;2022-12-10T04:04:49;8.45;;;4.72;;
53927;SDS011;39837;47.630;18.822;2022-12-10T04:07:33;6.68;;;5.20;;
53927;SDS011;39837;47.630;18.822;2022-12-10T04:10:17;8.85;;;6.63;;
53927;SDS011;39837;47.630;18.822;2022-12-10T04:13:01;6.57;;;4.90;;
53927;SDS011;39837;47.630;18.822;2022-12-10T04:16:04;6.68;;;5.60;;
53927;SDS011;39837;47.630;18.822;2022-12-10T04:19:11;10.63;;;7.05;;
53927;SDS011;39837;47.630;18.822;2022-12-10T04:21:57;9.80;;;6.40;;
53927;SDS011;39837;47.630;18.822;2022-12-10T04:24:59;7.78;;;5.65;;
53927;SDS011;39837;47.630;18.822;2022-12-10T04:28:03;8.45;;;5.90;;
53927;SDS011;39837;47.630;18.822;2022-12-10T04:30:47;10.25;;;6.32;;
53927;SDS011;39837;47.630;18.822;2022-12-10T04:33:31;5.90;;;5.40;;
53927;SDS011;39837;47.630;18.822;2022-12-10T04:36:15;9.48;;;5.95;;
53927;SDS011;39837;47.630;18.822;2022-12-10T04:38:59;7.10;;;6.30;;
53927;SDS011;39837;47.630;18.822;2022-12-10T04:41:44;6.05;;;5.45;;
53927;SDS011;39837;47.630;18.822;2022-12-10T04:44:29;6.55;;;5.82;;
53927;SDS011;39837;47.630;18.822;2022-12-10T04:47:13;11.20;;;7.22;;
53927;SDS011;39837;47.630;18.822;2022-12-10T04:49:56;9.40;;;6.43;;
53927;SDS011;39837;47.630;18.822;2022-12-10T04:52:40;8.90;;;6.53;;
53927;SDS011;39837;47.630;18.822;2022-12-10T04:55:24;13.60;;;6.72;;
53927;SDS011;39837;47.630;18.822;2022-12-10T04:58:08;7.82;;;6.47;;
53927;SDS011;39837;47.630;18.822;2022-12-10T05:00:52;18.45;;;6.90;;
53927;SDS011;39837;47.630;18.822;2022-12-10T05:03:36;10.68;;;7.05;;
53927;SDS011;39837;47.630;18.822;2022-12-10T05:06:20;8.15;;;6.75;;
53927;SDS011;39837;47.630;18.822;2022-12-10T05:09:04;4.88;;;4.47;;
53927;SDS011;39837;47.630;18.822;2022-12-10T05:11:49;5.72;;;5.25;;
53927;SDS011;39837;47.630;18.822;2022-12-10T05:14:33;7.28;;;5.75;;
53927;SDS011;39837;47.630;18.822;2022-12-10T05:17:17;5.55;;;5.10;;
53927;SDS011;39837;47.630;18.822;2022-12-10T05:20:01;6.28;;;5.68;;
53927;SDS011;39837;47.630;18.822;2022-12-10T05:22:46;7.43;;;6.57;;
53927;SDS011;39837;47.630;18.822;2022-12-10T05:25:56;7.25;;;6.53;;
53927;SDS011;39837;47.630;18.822;2022-12-10T05:28:44;11.75;;;6.22;;
53927;SDS011;39837;47.630;18.822;2022-12-10T05:31:30;6.78;;;5.38;;
53927;SDS011;39837;47.630;18.822;2022-12-10T05:34:14;10.93;;;6.07;;
53927;SDS011;39837;47.630;18.822;2022-12-10T05:36:59;6.43;;;5.72;;
53927;SDS011;39837;47.630;18.822;2022-12-10T05:39:42;6.53;;;5.93;;
53927;SDS011;39837;47.630;18.822;2022-12-10T05:42:27;6.05;;;4.75;;
53927;SDS011;39837;47.630;18.822;2022-12-10T05:45:13;13.32;;;6.55;;
53927;SDS011;39837;47.630;18.822;2022-12-10T05:47:57;7.25;;;5.60;;
53927;SDS011;39837;47.630;18.822;2022-12-10T05:50:42;8.40;;;5.72;;
53927;SDS011;39837;47.630;18.822;2022-12-10T05:53:26;14.32;;;5.65;;
53927;SDS011;39837;47.630;18.822;2022-12-10T05:56:11;6.22;;;5.63;;
53927;SDS011;39837;47.630;18.822;2022-12-10T05:58:58;7.32;;;6.55;;
53927;SDS011;39837;47.630;18.822;2022-12-10T06:01:44;13.07;;;6.50;;
53927;SDS011;39837;47.630;18.822;2022-12-10T06:04:28;8.63;;;7.72;;
53927;SDS011;39837;47.630;18.822;2022-12-10T06:07:12;12.30;;;6.00;;
53927;SDS011;39837;47.630;18.822;2022-12-10T06:09:56;12.20;;;6.88;;
53927;SDS011;39837;47.630;18.822;2022-12-10T06:12:40;5.95;;;5.30;;
53927;SDS011;39837;47.630;18.822;2022-12-10T06:15:24;6.18;;;5.47;;
53927;SDS011;39837;47.630;18.822;2022-12-10T06:18:08;10.00;;;8.18;;
53927;SDS011;39837;47.630;18.822;2022-12-10T06:20:52;7.72;;;6.50;;
53927;SDS011;39837;47.630;18.822;2022-12-10T06:23:36;8.02;;;7.22;;
53927;SDS011;39837;47.630;18.822;2022-12-10T06:26:22;9.93;;;7.28;;
53927;SDS011;39837;47.630;18.822;2022-12-10T06:29:08;8.77;;;7.13;;
53927;SDS011;39837;47.630;18.822;2022-12-10T06:31:52;10.23;;;7.65;;
53927;SDS011;39837;47.630;18.822;2022-12-10T06:34:37;6.78;;;5.75;;
53927;SDS011;39837;47.630;18.822;2022-12-10T06:37:21;7.70;;;6.95;;
53927;SDS011;39837;47.630;18.822;2022-12-10T06:40:05;8.55;;;7.18;;
53927;SDS011;39837;47.630;18.822;2022-12-10T06:42:52;9.50;;;7.55;;
53927;SDS011;39837;47.630;18.822;2022-12-10T06:45:40;8.32;;;6.15;;
53927;SDS011;39837;47.630;18.822;2022-12-10T06:48:24;9.52;;;8.10;;
53927;SDS011;39837;47.630;18.822;2022-12-10T06:51:08;10.02;;;7.03;;
53927;SDS011;39837;47.630;18.822;2022-12-10T06:53:53;10.77;;;8.82;;
53927;SDS011;39837;47.630;18.822;2022-12-10T06:56:38;11.27;;;8.27;;
53927;SDS011;39837;47.630;18.822;2022-12-10T06:59:22;11.75;;;7.88;;
53927;SDS011;39837;47.630;18.822;2022-12-10T07:02:07;10.55;;;8.45;;
53927;SDS011;39837;47.630;18.822;2022-12-10T07:04:52;8.25;;;7.18;;
53927;SDS011;39837;47.630;18.822;2022-12-10T07:07:40;10.95;;;7.63;;
53927;SDS011;39837;47.630;18.822;2022-12-10T07:10:24;13.05;;;8.48;;
53927;SDS011;39837;47.630;18.822;2022-12-10T07:13:08;9.60;;;7.53;;
53927;SDS011;39837;47.630;18.822;2022-12-10T07:15:52;9.35;;;8.20;;
53927;SDS011;39837;47.630;18.822;2022-12-10T07:18:36;20.60;;;14.07;;
53927;SDS011;39837;47.630;18.822;2022-12-10T07:21:25;9.30;;;6.35;;
53927;SDS011;39837;47.630;18.822;2022-12-10T07:24:12;22.17;;;13.18;;
53927;SDS011;39837;47.630;18.822;2022-12-10T07:26:57;15.20;;;9.13;;
53927;SDS011;39837;47.630;18.822;2022-12-10T07:29:41;11.75;;;8.40;;
53927;SDS011;39837;47.630;18.822;2022-12-10T07:32:28;10.50;;;8.20;;
53927;SDS011;39837;47.630;18.822;2022-12-10T07:35:12;11.68;;;8.60;;
53927;SDS011;39837;47.630;18.822;2022-12-10T07:37:56;11.27;;;8.88;;
53927;SDS011;39837;47.630;18.822;2022-12-10T07:40:41;12.45;;;9.27;;
53927;SDS011;39837;47.630;18.822;2022-12-10T07:43:25;13.52;;;10.00;;
53927;SDS011;39837;47.630;18.822;2022-12-10T07:46:19;20.83;;;11.63;;
53927;SDS011;39837;47.630;18.822;2022-12-10T07:49:04;18.27;;;13.45;;
53927;SDS011;39837;47.630;18.822;2022-12-10T07:51:49;21.15;;;13.27;;
53927;SDS011;39837;47.630;18.822;2022-12-10T07:54:33;10.68;;;8.15;;
53927;SDS011;39837;47.630;18.822;2022-12-10T07:57:17;14.18;;;10.00;;
53927;SDS011;39837;47.630;18.822;2022-12-10T08:00:02;22.63;;;11.90;;
53927;SDS011;39837;47.630;18.822;2022-12-10T08:02:47;14.75;;;9.57;;
53927;SDS011;39837;47.630;18.822;2022-12-10T08:05:31;16.63;;;11.77;;
53927;SDS011;39837;47.630;18.822;2022-12-10T08:08:15;19.42;;;12.65;;
53927;SDS011;39837;47.630;18.822;2022-12-10T08:10:59;17.67;;;11.70;;
53927;SDS011;39837;47.630;18.822;2022-12-10T08:13:44;23.00;;;13.73;;
53927;SDS011;39837;47.630;18.822;2022-12-10T08:16:29;20.45;;;12.77;;
53927;SDS011;39837;47.630;18.822;2022-12-10T08:19:14;27.33;;;14.25;;
53927;SDS011;39837;47.630;18.822;2022-12-10T08:21:58;18.13;;;11.52;;
53927;SDS011;39837;47.630;18.822;2022-12-10T08:24:42;28.10;;;14.07;;
53927;SDS011;39837;47.630;18.822;2022-12-10T08:27:26;25.05;;;12.43;;
53927;SDS011;39837;47.630;18.822;2022-12-10T08:30:11;18.65;;;12.45;;
53927;SDS011;39837;47.630;18.822;2022-12-10T08:32:55;31.90;;;14.65;;
53927;SDS011;39837;47.630;18.822;2022-12-10T08:35:39;24.30;;;15.05;;
53927;SDS011;39837;47.630;18.822;2022-12-10T08:38:23;22.45;;;12.45;;
53927;SDS011;39837;47.630;18.822;2022-12-10T08:41:08;23.80;;;14.20;;
53927;SDS011;39837;47.630;18.822;2022-12-10T08:43:53;29.02;;;14.73;;
53927;SDS011;39837;47.630;18.822;2022-12-10T08:46:38;28.80;;;14.80;;
53927;SDS011;39837;47.630;18.822;2022-12-10T08:49:22;23.38;;;15.93;;
53927;SDS011;39837;47.630;18.822;2022-12-10T08:52:06;20.52;;;13.00;;
53927;SDS011;39837;47.630;18.822;2022-12-10T08:54:51;23.20;;;14.57;;
53927;SDS011;39837;47.630;18.822;2022-12-10T08:57:35;33.30;;;17.73;;
53927;SDS011;39837;47.630;18.822;2022-12-10T09:00:18;28.55;;;17.80;;
53927;SDS011;39837;47.630;18.822;2022-12-10T09:03:03;22.17;;;16.92;;
53927;SDS011;39837;47.630;18.822;2022-12-10T09:05:47;33.70;;;19.73;;
53927;SDS011;39837;47.630;18.822;2022-12-10T09:08:31;41.97;;;22.17;;
53927;SDS011;39837;47.630;18.822;2022-12-10T09:11:23;31.23;;;15.07;;
53927;SDS011;39837;47.630;18.822;2022-12-10T09:14:09;30.13;;;15.25;;
53927;SDS011;39837;47.630;18.822;2022-12-10T09:16:53;21.85;;;15.95;;
53927;SDS011;39837;47.630;18.822;2022-12-10T09:19:37;18.00;;;12.95;;
53927;SDS011;39837;47.630;18.822;2022-12-10T09:22:21;17.52;;;11.77;;
53927;SDS011;39837;47.630;18.822;2022-12-10T09:25:06;19.30;;;13.32;;
53927;SDS011;39837;47.630;18.822;2022-12-10T09:27:53;16.63;;;11.93;;
53927;SDS011;39837;47.630;18.822;2022-12-10T09:30:38;18.55;;;12.82;;
53927;SDS011;39837;47.630;18.822;2022-12-10T09:33:22;23.35;;;14.48;;
53927;SDS011;39837;47.630;18.822;2022-12-10T09:36:06;25.25;;;13.45;;
53927;SDS011;39837;47.630;18.822;2022-12-10T09:38:51;19.75;;;13.13;;
53927;SDS011;39837;47.630;18.822;2022-12-10T09:47:24;20.83;;;14.93;;
53927;SDS011;39837;47.630;18.822;2022-12-10T09:53:19;18.10;;;12.80;;
53927;SDS011;39837;47.630;18.822;2022-12-10T09:56:05;22.45;;;15.27;;
53927;SDS011;39837;47.630;18.822;2022-12-10T09:58:49;25.50;;;17.67;;
53927;SDS011;39837;47.630;18.822;2022-12-10T10:01:33;32.28;;;19.88;;
53927;SDS011;39837;47.630;18.822;2022-12-10T10:04:18;25.08;;;15.00;;
53927;SDS011;39837;47.630;18.822;2022-12-10T10:07:02;19.90;;;13.70;;
53927;SDS011;39837;47.630;18.822;2022-12-10T10:09:48;25.55;;;14.30;;
53927;SDS011;39837;47.630;18.822;2022-12-10T10:12:33;19.20;;;12.15;;
53927;SDS011;39837;47.630;18.822;2022-12-10T10:15:19;25.33;;;16.65;;
53927;SDS011;39837;47.630;18.822;2022-12-10T10:18:15;27.95;;;14.85;;
53927;SDS011;39837;47.630;18.822;2022-12-10T10:21:06;23.60;;;14.90;;
53927;SDS011;39837;47.630;18.822;2022-12-10T10:24:00;28.05;;;18.63;;
53927;SDS011;39837;47.630;18.822;2022-12-10T10:26:45;29.67;;;19.25;;
53927;SDS011;39837;47.630;18.822;2022-12-10T10:29:29;29.60;;;18.63;;
53927;SDS011;39837;47.630;18.822;2022-12-10T10:35:03;29.30;;;15.50;;
53927;SDS011;39837;47.630;18.822;2022-12-10T10:40:38;19.73;;;14.00;;
53927;SDS011;39837;47.630;18.822;2022-12-10T10:43:28;28.58;;;16.63;;
53927;SDS011;39837;47.630;18.822;2022-12-10T10:46:17;25.83;;;14.52;;
53927;SDS011;39837;47.630;18.822;2022-12-10T10:52:13;22.25;;;12.00;;
53927;SDS011;39837;47.630;18.822;2022-12-10T10:54:59;22.77;;;14.38;;
53927;SDS011;39837;47.630;18.822;2022-12-10T10:57:43;29.00;;;15.23;;
53927;SDS011;39837;47.630;18.822;2022-12-10T11:00:27;20.90;;;12.35;;
53927;SDS011;39837;47.630;18.822;2022-12-10T11:03:11;19.33;;;11.85;;
53927;SDS011;39837;47.630;18.822;2022-12-10T11:05:56;18.88;;;11.90;;
53927;SDS011;39837;47.630;18.822;2022-12-10T11:08:41;23.45;;;14.27;;
53927;SDS011;39837;47.630;18.822;2022-12-10T11:11:39;20.33;;;12.75;;
53927;SDS011;39837;47.630;18.822;2022-12-10T11:14:29;25.80;;;13.80;;
53927;SDS011;39837;47.630;18.822;2022-12-10T11:17:21;15.98;;;11.32;;
53927;SDS011;39837;47.630;18.822;2022-12-10T11:20:25;24.02;;;12.93;;
53927;SDS011;39837;47.630;18.822;2022-12-10T11:23:12;15.82;;;11.23;;
53927;SDS011;39837;47.630;18.822;2022-12-10T11:41:41;21.17;;;13.68;;
53927;SDS011;39837;47.630;18.822;2022-12-10T11:51:06;20.63;;;11.50;;
53927;SDS011;39837;47.630;18.822;2022-12-10T12:00:00;19.05;;;12.73;;
53927;SDS011;39837;47.630;18.822;2022-12-10T12:03:00;23.80;;;14.20;;
53927;SDS011;39837;47.630;18.822;2022-12-10T12:15:12;18.75;;;12.18;;
53927;SDS011;39837;47.630;18.822;2022-12-10T12:21:02;16.45;;;11.73;;
53927;SDS011;39837;47.630;18.822;2022-12-10T12:26:50;23.25;;;14.15;;
53927;SDS011;39837;47.630;18.822;2022-12-10T12:29:51;21.55;;;12.77;;
53927;SDS011;39837;47.630;18.822;2022-12-10T12:36:14;17.25;;;13.00;;
53927;SDS011;39837;47.630;18.822;2022-12-10T12:39:17;18.95;;;11.27;;
53927;SDS011;39837;47.630;18.822;2022-12-10T12:42:19;23.27;;;14.68;;
53927;SDS011;39837;47.630;18.822;2022-12-10T12:45:10;18.52;;;13.18;;
53927;SDS011;39837;47.630;18.822;2022-12-10T12:48:04;19.75;;;12.48;;
53927;SDS011;39837;47.630;18.822;2022-12-10T12:53:37;24.25;;;14.48;;
53927;SDS011;39837;47.630;18.822;2022-12-10T12:56:25;20.80;;;14.38;;
53927;SDS011;39837;47.630;18.822;2022-12-10T13:05:50;18.15;;;12.82;;
53927;SDS011;39837;47.630;18.822;2022-12-10T13:08:38;16.88;;;13.18;;
53927;SDS011;39837;47.630;18.822;2022-12-10T13:11:35;23.75;;;14.65;;
53927;SDS011;39837;47.630;18.822;2022-12-10T13:14:33;25.73;;;13.57;;
53927;SDS011;39837;47.630;18.822;2022-12-10T13:26:21;22.45;;;12.75;;
53927;SDS011;39837;47.630;18.822;2022-12-10T13:29:12;17.08;;;12.60;;
53927;SDS011;39837;47.630;18.822;2022-12-10T13:32:13;26.13;;;12.93;;
53927;SDS011;39837;47.630;18.822;2022-12-10T13:37:53;24.85;;;13.10;;
53927;SDS011;39837;47.630;18.822;2022-12-10T13:40:56;20.65;;;12.82;;
53927;SDS011;39837;47.630;18.822;2022-12-10T13:44:21;16.40;;;11.23;;
53927;SDS011;39837;47.630;18.822;2022-12-10T13:47:25;21.67;;;11.90;;
53927;SDS011;39837;47.630;18.822;2022-12-10T13:58:46;15.25;;;11.15;;
53927;SDS011;39837;47.630;18.822;2022-12-10T14:01:53;18.35;;;11.68;;
53927;SDS011;39837;47.630;18.822;2022-12-10T14:07:47;19.85;;;10.18;;
53927;SDS011;39837;47.630;18.822;2022-12-10T14:10:34;20.42;;;10.30;;
53927;SDS011;39837;47.630;18.822;2022-12-10T14:13:20;18.35;;;11.23;;
53927;SDS011;39837;47.630;18.822;2022-12-10T14:16:05;16.92;;;10.57;;
53927;SDS011;39837;47.630;18.822;2022-12-10T14:18:58;16.08;;;10.43;;
53927;SDS011;39837;47.630;18.822;2022-12-10T14:21:45;18.08;;;12.18;;
53927;SDS011;39837;47.630;18.822;2022-12-10T14:24:34;19.67;;;11.48;;
53927;SDS011;39837;47.630;18.822;2022-12-10T14:27:23;20.58;;;13.48;;
53927;SDS011;39837;47.630;18.822;2022-12-10T14:33:10;47.60;;;27.83;;
53927;SDS011;39837;47.630;18.822;2022-12-10T14:35:56;40.45;;;20.92;;
53927;SDS011;39837;47.630;18.822;2022-12-10T14:38:42;19.50;;;13.48;;
53927;SDS011;39837;47.630;18.822;2022-12-10T14:41:29;20.63;;;13.90;;
53927;SDS011;39837;47.630;18.822;2022-12-10T14:44:15;20.73;;;13.30;;
53927;SDS011;39837;47.630;18.822;2022-12-10T14:47:05;30.23;;;14.82;;
53927;SDS011;39837;47.630;18.822;2022-12-10T14:49:51;21.65;;;13.52;;
53927;SDS011;39837;47.630;18.822;2022-12-10T14:52:42;28.27;;;16.58;;
53927;SDS011;39837;47.630;18.822;2022-12-10T14:55:27;22.25;;;15.25;;
53927;SDS011;39837;47.630;18.822;2022-12-10T14:58:23;20.10;;;12.77;;
53927;SDS011;39837;47.630;18.822;2022-12-10T15:04:18;18.13;;;12.52;;
53927;SDS011;39837;47.630;18.822;2022-12-10T15:07:03;24.23;;;13.60;;
53927;SDS011;39837;47.630;18.822;2022-12-10T15:09:47;28.17;;;16.67;;
53927;SDS011;39837;47.630;18.822;2022-12-10T15:12:42;21.95;;;13.27;;
53927;SDS011;39837;47.630;18.822;2022-12-10T15:15:31;20.33;;;11.55;;
53927;SDS011;39837;47.630;18.822;2022-12-10T15:19:05;21.20;;;13.23;;
53927;SDS011;39837;47.630;18.822;2022-12-10T15:21:26;14.60;;;11.32;;
53927;SDS011;39837;47.630;18.822;2022-12-10T15:24:15;21.52;;;11.75;;
53927;SDS011;39837;47.630;18.822;2022-12-10T15:27:14;18.38;;;12.43;;
53927;SDS011;39837;47.630;18.822;2022-12-10T15:30:00;18.10;;;12.85;;
53927;SDS011;39837;47.630;18.822;2022-12-10T15:33:16;23.23;;;16.75;;
53927;SDS011;39837;47.630;18.822;2022-12-10T15:36:31;21.67;;;11.30;;
53927;SDS011;39837;47.630;18.822;2022-12-10T15:39:20;27.60;;;13.70;;
53927;SDS011;39837;47.630;18.822;2022-12-10T15:42:24;25.45;;;14.00;;
53927;SDS011;39837;47.630;18.822;2022-12-10T15:45:40;25.42;;;16.52;;
53927;SDS011;39837;47.630;18.822;2022-12-10T15:48:26;18.48;;;11.05;;
53927;SDS011;39837;47.630;18.822;2022-12-10T15:51:12;19.33;;;11.45;;
53927;SDS011;39837;47.630;18.822;2022-12-10T15:53:56;15.30;;;10.63;;
53927;SDS011;39837;47.630;18.822;2022-12-10T15:56:40;17.98;;;11.98;;
53927;SDS011;39837;47.630;18.822;2022-12-10T15:59:24;20.63;;;13.35;;
53927;SDS011;39837;47.630;18.822;2022-12-10T16:05:12;21.48;;;13.40;;
53927;SDS011;39837;47.630;18.822;2022-12-10T16:11:15;16.10;;;11.95;;
53927;SDS011;39837;47.630;18.822;2022-12-10T16:14:02;15.25;;;11.60;;
53927;SDS011;39837;47.630;18.822;2022-12-10T16:16:47;17.88;;;11.40;;
53927;SDS011;39837;47.630;18.822;2022-12-10T16:19:31;17.23;;;11.05;;
53927;SDS011;39837;47.630;18.822;2022-12-10T16:22:17;17.75;;;11.73;;
53927;SDS011;39837;47.630;18.822;2022-12-10T16:25:01;15.40;;;9.70;;
53927;SDS011;39837;47.630;18.822;2022-12-10T16:27:47;22.73;;;12.38;;
53927;SDS011;39837;47.630;18.822;2022-12-10T16:30:33;18.08;;;11.70;;
53927;SDS011;39837;47.630;18.822;2022-12-10T16:33:21;26.30;;;11.23;;
53927;SDS011;39837;47.630;18.822;2022-12-10T16:36:07;18.88;;;12.73;;
53927;SDS011;39837;47.630;18.822;2022-12-10T16:38:53;19.98;;;10.40;;
53927;SDS011;39837;47.630;18.822;2022-12-10T16:41:37;18.25;;;11.32;;
53927;SDS011;39837;47.630;18.822;2022-12-10T16:44:22;20.95;;;11.48;;
53927;SDS011;39837;47.630;18.822;2022-12-10T16:47:12;13.93;;;9.18;;
53927;SDS011;39837;47.630;18.822;2022-12-10T16:49:57;14.93;;;11.15;;
53927;SDS011;39837;47.630;18.822;2022-12-10T16:52:41;16.90;;;11.13;;
53927;SDS011;39837;47.630;18.822;2022-12-10T16:55:26;18.85;;;10.52;;
53927;SDS011;39837;47.630;18.822;2022-12-10T16:58:11;20.63;;;11.07;;
53927;SDS011;39837;47.630;18.822;2022-12-10T17:00:58;20.17;;;11.63;;
53927;SDS011;39837;47.630;18.822;2022-12-10T17:03:42;13.80;;;9.70;;
53927;SDS011;39837;47.630;18.822;2022-12-10T17:06:26;26.80;;;11.30;;
53927;SDS011;39837;47.630;18.822;2022-12-10T17:09:12;18.17;;;12.05;;
53927;SDS011;39837;47.630;18.822;2022-12-10T17:11:56;11.27;;;9.45;;
53927;SDS011;39837;47.630;18.822;2022-12-10T17:14:41;18.38;;;10.48;;
53927;SDS011;39837;47.630;18.822;2022-12-10T17:17:30;19.65;;;11.48;;
53927;SDS011;39837;47.630;18.822;2022-12-10T17:20:16;28.58;;;10.25;;
53927;SDS011;39837;47.630;18.822;2022-12-10T17:23:02;18.17;;;10.40;;
53927;SDS011;39837;47.630;18.822;2022-12-10T17:25:46;16.38;;;9.70;;
53927;SDS011;39837;47.630;18.822;2022-12-10T17:28:31;12.10;;;10.05;;
53927;SDS011;39837;47.630;18.822;2022-12-10T17:31:15;15.32;;;10.93;;
53927;SDS011;39837;47.630;18.822;2022-12-10T17:33:59;14.75;;;9.70;;
53927;SDS011;39837;47.630;18.822;2022-12-10T17:36:43;18.13;;;11.55;;
53927;SDS011;39837;47.630;18.822;2022-12-10T17:39:27;19.15;;;11.93;;
53927;SDS011;39837;47.630;18.822;2022-12-10T17:42:12;11.77;;;10.15;;
53927;SDS011;39837;47.630;18.822;2022-12-10T17:44:57;20.20;;;10.20;;
53927;SDS011;39837;47.630;18.822;2022-12-10T17:47:41;9.90;;;8.45;;
53927;SDS011;39837;47.630;18.822;2022-12-10T17:50:27;18.00;;;10.38;;
53927;SDS011;39837;47.630;18.822;2022-12-10T17:53:14;13.73;;;9.80;;
53927;SDS011;39837;47.630;18.822;2022-12-10T17:56:00;21.20;;;13.30;;
53927;SDS011;39837;47.630;18.822;2022-12-10T17:58:46;12.75;;;9.88;;
53927;SDS011;39837;47.630;18.822;2022-12-10T18:01:31;18.05;;;11.27;;
53927;SDS011;39837;47.630;18.822;2022-12-10T18:04:15;13.68;;;9.77;;
53927;SDS011;39837;47.630;18.822;2022-12-10T18:07:00;17.63;;;11.13;;
53927;SDS011;39837;47.630;18.822;2022-12-10T18:09:44;13.77;;;9.93;;
53927;SDS011;39837;47.630;18.822;2022-12-10T18:12:29;12.70;;;8.90;;
53927;SDS011;39837;47.630;18.822;2022-12-10T18:15:13;19.35;;;8.57;;
53927;SDS011;39837;47.630;18.822;2022-12-10T18:17:58;17.30;;;9.05;;
53927;SDS011;39837;47.630;18.822;2022-12-10T18:20:43;13.55;;;9.95;;